sensor_id;sensor_type;location;lat;lon;timestamp;P1;durP1;ratioP1;P2;durP2;ratioP2
14007;SDS011;61651;45.508;12.232;2023-04-09T00:02:47;2.65;;;2.45;;
14007;SDS011;61651;45.508;12.232;2023-04-09T00:05:49;3.08;;;2.78;;
14007;SDS011;61651;45.508;12.232;2023-04-09T00:08:52;2.58;;;2.38;;
14007;SDS011;61651;45.508;12.232;2023-04-09T00:11:54;2.47;;;2.28;;
14007;SDS011;61651;45.508;12.232;2023-04-09T00:14:57;2.88;;;2.60;;
14007;SDS011;61651;45.508;12.232;2023-04-09T00:18:00;3.17;;;2.47;;
14007;SDS011;61651;45.508;12.232;2023-04-09T00:21:02;3.35;;;2.65;;
14007;SDS011;61651;45.508;12.232;2023-04-09T00:24:06;5.60;;;2.80;;
14007;SDS011;61651;45.508;12.232;2023-04-09T00:27:08;4.35;;;3.13;;
14007;SDS011;61651;45.508;12.232;2023-04-09T00:30:10;2.95;;;2.75;;
14007;SDS011;61651;45.508;12.232;2023-04-09T00:33:13;3.03;;;2.75;;
14007;SDS011;61651;45.508;12.232;2023-04-09T00:36:15;2.90;;;2.67;;
14007;SDS011;61651;45.508;12.232;2023-04-09T00:39:17;3.20;;;2.83;;
14007;SDS011;61651;45.508;12.232;2023-04-09T00:42:19;3.30;;;3.00;;
14007;SDS011;61651;45.508;12.232;2023-04-09T00:45:22;3.22;;;2.90;;
14007;SDS011;61651;45.508;12.232;2023-04-09T00:48:25;3.53;;;3.22;;
14007;SDS011;61651;45.508;12.232;2023-04-09T00:51:27;3.95;;;3.53;;
14007;SDS011;61651;45.508;12.232;2023-04-09T00:54:30;3.53;;;3.22;;
14007;SDS011;61651;45.508;12.232;2023-04-09T00:57:33;3.97;;;3.67;;
14007;SDS011;61651;45.508;12.232;2023-04-09T01:00:35;4.22;;;3.83;;
14007;SDS011;61651;45.508;12.232;2023-04-09T01:03:38;4.50;;;4.20;;
14007;SDS011;61651;45.508;12.232;2023-04-09T01:06:41;4.73;;;4.30;;
14007;SDS011;61651;45.508;12.232;2023-04-09T01:09:51;5.65;;;4.60;;
14007;SDS011;61651;45.508;12.232;2023-04-09T01:12:59;5.47;;;4.30;;
14007;SDS011;61651;45.508;12.232;2023-04-09T01:16:08;5.10;;;4.68;;
14007;SDS011;61651;45.508;12.232;2023-04-09T01:19:18;7.50;;;5.03;;
14007;SDS011;61651;45.508;12.232;2023-04-09T01:22:38;5.88;;;5.35;;
14007;SDS011;61651;45.508;12.232;2023-04-09T01:25:52;6.53;;;5.93;;
14007;SDS011;61651;45.508;12.232;2023-04-09T01:29:04;6.13;;;5.50;;
14007;SDS011;61651;45.508;12.232;2023-04-09T01:32:08;7.15;;;6.45;;
14007;SDS011;61651;45.508;12.232;2023-04-09T01:35:12;7.13;;;6.05;;
14007;SDS011;61651;45.508;12.232;2023-04-09T01:38:15;6.65;;;6.03;;
14007;SDS011;61651;45.508;12.232;2023-04-09T01:41:20;7.53;;;6.18;;
14007;SDS011;61651;45.508;12.232;2023-04-09T01:44:24;7.65;;;6.20;;
14007;SDS011;61651;45.508;12.232;2023-04-09T01:47:27;6.40;;;5.80;;
14007;SDS011;61651;45.508;12.232;2023-04-09T01:50:31;9.65;;;7.13;;
14007;SDS011;61651;45.508;12.232;2023-04-09T01:53:33;7.27;;;6.57;;
14007;SDS011;61651;45.508;12.232;2023-04-09T01:56:39;7.47;;;6.57;;
14007;SDS011;61651;45.508;12.232;2023-04-09T01:59:44;7.60;;;6.88;;
14007;SDS011;61651;45.508;12.232;2023-04-09T02:02:47;7.17;;;6.47;;
14007;SDS011;61651;45.508;12.232;2023-04-09T02:05:56;7.57;;;6.83;;
14007;SDS011;61651;45.508;12.232;2023-04-09T02:09:04;7.90;;;7.03;;
14007;SDS011;61651;45.508;12.232;2023-04-09T02:12:09;7.43;;;6.53;;
14007;SDS011;61651;45.508;12.232;2023-04-09T02:15:16;7.40;;;6.70;;
14007;SDS011;61651;45.508;12.232;2023-04-09T02:18:20;7.93;;;7.13;;
14007;SDS011;61651;45.508;12.232;2023-04-09T02:21:26;8.97;;;7.20;;
14007;SDS011;61651;45.508;12.232;2023-04-09T02:24:29;7.10;;;6.40;;
14007;SDS011;61651;45.508;12.232;2023-04-09T02:27:31;7.00;;;6.30;;
14007;SDS011;61651;45.508;12.232;2023-04-09T02:30:34;7.03;;;6.32;;
14007;SDS011;61651;45.508;12.232;2023-04-09T02:33:36;6.87;;;6.00;;
14007;SDS011;61651;45.508;12.232;2023-04-09T02:36:38;6.67;;;6.07;;
14007;SDS011;61651;45.508;12.232;2023-04-09T02:39:40;6.53;;;5.80;;
14007;SDS011;61651;45.508;12.232;2023-04-09T02:42:42;8.35;;;7.03;;
14007;SDS011;61651;45.508;12.232;2023-04-09T02:45:45;7.07;;;6.37;;
14007;SDS011;61651;45.508;12.232;2023-04-09T02:48:47;6.27;;;5.67;;
14007;SDS011;61651;45.508;12.232;2023-04-09T02:51:49;6.30;;;5.60;;
14007;SDS011;61651;45.508;12.232;2023-04-09T02:54:51;6.40;;;5.80;;
14007;SDS011;61651;45.508;12.232;2023-04-09T02:57:53;6.33;;;5.73;;
14007;SDS011;61651;45.508;12.232;2023-04-09T03:00:56;7.30;;;5.63;;
14007;SDS011;61651;45.508;12.232;2023-04-09T03:03:58;7.07;;;6.23;;
14007;SDS011;61651;45.508;12.232;2023-04-09T03:07:00;6.37;;;5.77;;
14007;SDS011;61651;45.508;12.232;2023-04-09T03:10:02;6.53;;;5.53;;
14007;SDS011;61651;45.508;12.232;2023-04-09T03:13:05;6.83;;;5.53;;
14007;SDS011;61651;45.508;12.232;2023-04-09T03:16:08;6.77;;;6.07;;
14007;SDS011;61651;45.508;12.232;2023-04-09T03:19:10;6.93;;;6.23;;
14007;SDS011;61651;45.508;12.232;2023-04-09T03:22:12;5.57;;;5.07;;
14007;SDS011;61651;45.508;12.232;2023-04-09T03:25:14;5.13;;;4.63;;
14007;SDS011;61651;45.508;12.232;2023-04-09T03:28:18;5.60;;;4.97;;
14007;SDS011;61651;45.508;12.232;2023-04-09T03:31:21;5.30;;;4.90;;
14007;SDS011;61651;45.508;12.232;2023-04-09T03:34:23;4.60;;;4.20;;
14007;SDS011;61651;45.508;12.232;2023-04-09T03:37:25;5.17;;;4.43;;
14007;SDS011;61651;45.508;12.232;2023-04-09T03:40:27;5.33;;;4.60;;
14007;SDS011;61651;45.508;12.232;2023-04-09T03:43:30;4.20;;;3.80;;
14007;SDS011;61651;45.508;12.232;2023-04-09T03:46:33;4.03;;;3.73;;
14007;SDS011;61651;45.508;12.232;2023-04-09T03:49:35;3.90;;;3.60;;
14007;SDS011;61651;45.508;12.232;2023-04-09T03:52:37;3.93;;;3.53;;
14007;SDS011;61651;45.508;12.232;2023-04-09T03:55:39;3.40;;;3.10;;
14007;SDS011;61651;45.508;12.232;2023-04-09T03:58:41;3.20;;;2.90;;
14007;SDS011;61651;45.508;12.232;2023-04-09T04:01:44;3.47;;;3.17;;
14007;SDS011;61651;45.508;12.232;2023-04-09T04:04:47;3.30;;;3.00;;
14007;SDS011;61651;45.508;12.232;2023-04-09T04:07:49;3.23;;;2.93;;
14007;SDS011;61651;45.508;12.232;2023-04-09T04:10:50;2.80;;;2.60;;
14007;SDS011;61651;45.508;12.232;2023-04-09T04:13:52;2.73;;;2.53;;
14007;SDS011;61651;45.508;12.232;2023-04-09T04:16:57;3.20;;;2.87;;
14007;SDS011;61651;45.508;12.232;2023-04-09T04:19:59;4.03;;;2.47;;
14007;SDS011;61651;45.508;12.232;2023-04-09T04:23:01;2.70;;;2.50;;
14007;SDS011;61651;45.508;12.232;2023-04-09T04:26:05;2.93;;;2.70;;
14007;SDS011;61651;45.508;12.232;2023-04-09T04:29:09;2.70;;;2.50;;
14007;SDS011;61651;45.508;12.232;2023-04-09T04:32:12;2.97;;;2.43;;
14007;SDS011;61651;45.508;12.232;2023-04-09T04:35:14;2.33;;;2.20;;
14007;SDS011;61651;45.508;12.232;2023-04-09T04:38:16;2.13;;;1.93;;
14007;SDS011;61651;45.508;12.232;2023-04-09T04:41:18;2.30;;;2.10;;
14007;SDS011;61651;45.508;12.232;2023-04-09T04:44:20;2.47;;;2.27;;
14007;SDS011;61651;45.508;12.232;2023-04-09T04:47:23;3.90;;;2.20;;
14007;SDS011;61651;45.508;12.232;2023-04-09T04:50:25;2.80;;;2.53;;
14007;SDS011;61651;45.508;12.232;2023-04-09T04:53:27;2.50;;;2.30;;
14007;SDS011;61651;45.508;12.232;2023-04-09T04:56:29;2.43;;;2.23;;
14007;SDS011;61651;45.508;12.232;2023-04-09T04:59:31;3.60;;;2.30;;
14007;SDS011;61651;45.508;12.232;2023-04-09T05:02:34;2.60;;;2.40;;
14007;SDS011;61651;45.508;12.232;2023-04-09T05:05:36;2.10;;;2.00;;
14007;SDS011;61651;45.508;12.232;2023-04-09T05:08:38;2.50;;;2.30;;
14007;SDS011;61651;45.508;12.232;2023-04-09T05:11:41;2.50;;;2.30;;
14007;SDS011;61651;45.508;12.232;2023-04-09T05:14:43;2.27;;;2.07;;
14007;SDS011;61651;45.508;12.232;2023-04-09T05:17:46;2.60;;;2.37;;
14007;SDS011;61651;45.508;12.232;2023-04-09T05:20:48;2.10;;;2.00;;
14007;SDS011;61651;45.508;12.232;2023-04-09T05:23:50;2.53;;;2.20;;
14007;SDS011;61651;45.508;12.232;2023-04-09T05:26:52;2.00;;;1.90;;
14007;SDS011;61651;45.508;12.232;2023-04-09T05:29:54;2.10;;;2.00;;
14007;SDS011;61651;45.508;12.232;2023-04-09T05:32:58;2.17;;;2.03;;
14007;SDS011;61651;45.508;12.232;2023-04-09T05:36:00;2.30;;;2.10;;
14007;SDS011;61651;45.508;12.232;2023-04-09T05:39:02;2.30;;;2.10;;
14007;SDS011;61651;45.508;12.232;2023-04-09T05:42:04;2.77;;;2.10;;
14007;SDS011;61651;45.508;12.232;2023-04-09T05:45:06;1.90;;;1.80;;
14007;SDS011;61651;45.508;12.232;2023-04-09T05:48:10;2.27;;;2.07;;
14007;SDS011;61651;45.508;12.232;2023-04-09T05:51:12;2.40;;;2.20;;
14007;SDS011;61651;45.508;12.232;2023-04-09T05:54:14;1.90;;;1.80;;
14007;SDS011;61651;45.508;12.232;2023-04-09T05:57:16;2.00;;;1.87;;
14007;SDS011;61651;45.508;12.232;2023-04-09T06:00:18;1.90;;;1.80;;
14007;SDS011;61651;45.508;12.232;2023-04-09T06:03:22;1.90;;;1.80;;
14007;SDS011;61651;45.508;12.232;2023-04-09T06:06:24;2.10;;;1.90;;
14007;SDS011;61651;45.508;12.232;2023-04-09T06:09:26;1.97;;;1.87;;
14007;SDS011;61651;45.508;12.232;2023-04-09T06:12:28;2.10;;;1.87;;
14007;SDS011;61651;45.508;12.232;2023-04-09T06:15:29;2.10;;;2.00;;
14007;SDS011;61651;45.508;12.232;2023-04-09T06:18:33;1.83;;;1.73;;
14007;SDS011;61651;45.508;12.232;2023-04-09T06:21:35;1.83;;;1.73;;
14007;SDS011;61651;45.508;12.232;2023-04-09T06:24:38;2.17;;;1.77;;
14007;SDS011;61651;45.508;12.232;2023-04-09T06:27:40;1.80;;;1.70;;
14007;SDS011;61651;45.508;12.232;2023-04-09T06:30:42;2.37;;;2.17;;
14007;SDS011;61651;45.508;12.232;2023-04-09T06:33:45;2.07;;;1.87;;
14007;SDS011;61651;45.508;12.232;2023-04-09T06:36:47;2.20;;;2.00;;
14007;SDS011;61651;45.508;12.232;2023-04-09T06:39:49;2.10;;;1.93;;
14007;SDS011;61651;45.508;12.232;2023-04-09T06:42:51;2.20;;;2.00;;
14007;SDS011;61651;45.508;12.232;2023-04-09T06:45:53;1.97;;;1.87;;
14007;SDS011;61651;45.508;12.232;2023-04-09T06:48:57;2.27;;;2.07;;
14007;SDS011;61651;45.508;12.232;2023-04-09T06:51:59;2.20;;;2.00;;
14007;SDS011;61651;45.508;12.232;2023-04-09T06:55:01;2.47;;;1.73;;
14007;SDS011;61651;45.508;12.232;2023-04-09T06:58:03;2.88;;;1.80;;
14007;SDS011;61651;45.508;12.232;2023-04-09T07:01:05;2.50;;;1.80;;
14007;SDS011;61651;45.508;12.232;2023-04-09T07:04:08;2.00;;;1.90;;
14007;SDS011;61651;45.508;12.232;2023-04-09T07:07:10;1.87;;;1.77;;
14007;SDS011;61651;45.508;12.232;2023-04-09T07:10:12;1.97;;;1.87;;
14007;SDS011;61651;45.508;12.232;2023-04-09T07:13:14;1.80;;;1.70;;
14007;SDS011;61651;45.508;12.232;2023-04-09T07:16:16;2.00;;;1.80;;
14007;SDS011;61651;45.508;12.232;2023-04-09T07:19:19;1.85;;;1.73;;
14007;SDS011;61651;45.508;12.232;2023-04-09T07:22:21;2.17;;;1.98;;
14007;SDS011;61651;45.508;12.232;2023-04-09T07:25:24;1.88;;;1.77;;
14007;SDS011;61651;45.508;12.232;2023-04-09T07:28:27;2.17;;;2.05;;
14007;SDS011;61651;45.508;12.232;2023-04-09T07:31:29;2.10;;;1.90;;
14007;SDS011;61651;45.508;12.232;2023-04-09T07:34:33;2.05;;;1.88;;
14007;SDS011;61651;45.508;12.232;2023-04-09T07:37:35;2.17;;;1.97;;
14007;SDS011;61651;45.508;12.232;2023-04-09T07:40:37;2.13;;;1.92;;
14007;SDS011;61651;45.508;12.232;2023-04-09T07:43:39;3.20;;;2.13;;
14007;SDS011;61651;45.508;12.232;2023-04-09T07:46:42;2.20;;;2.00;;
14007;SDS011;61651;45.508;12.232;2023-04-09T07:49:45;2.20;;;2.00;;
14007;SDS011;61651;45.508;12.232;2023-04-09T07:52:47;2.17;;;1.80;;
14007;SDS011;61651;45.508;12.232;2023-04-09T07:55:49;2.80;;;1.80;;
14007;SDS011;61651;45.508;12.232;2023-04-09T07:58:51;2.35;;;2.00;;
14007;SDS011;61651;45.508;12.232;2023-04-09T08:01:53;2.35;;;2.15;;
14007;SDS011;61651;45.508;12.232;2023-04-09T08:04:57;4.18;;;2.35;;
14007;SDS011;61651;45.508;12.232;2023-04-09T08:07:59;2.20;;;2.00;;
14007;SDS011;61651;45.508;12.232;2023-04-09T08:11:00;2.03;;;1.88;;
14007;SDS011;61651;45.508;12.232;2023-04-09T08:14:03;2.00;;;1.80;;
14007;SDS011;61651;45.508;12.232;2023-04-09T08:17:05;2.10;;;2.00;;
14007;SDS011;61651;45.508;12.232;2023-04-09T08:20:09;2.55;;;2.35;;
14007;SDS011;61651;45.508;12.232;2023-04-09T08:23:12;2.13;;;1.90;;
14007;SDS011;61651;45.508;12.232;2023-04-09T08:26:14;1.80;;;1.70;;
14007;SDS011;61651;45.508;12.232;2023-04-09T08:29:16;2.38;;;2.17;;
14007;SDS011;61651;45.508;12.232;2023-04-09T08:32:18;2.15;;;1.95;;
14007;SDS011;61651;45.508;12.232;2023-04-09T08:35:21;2.38;;;2.17;;
14007;SDS011;61651;45.508;12.232;2023-04-09T08:38:23;2.47;;;2.28;;
14007;SDS011;61651;45.508;12.232;2023-04-09T08:41:27;2.42;;;2.22;;
14007;SDS011;61651;45.508;12.232;2023-04-09T08:44:30;2.42;;;2.22;;
14007;SDS011;61651;45.508;12.232;2023-04-09T08:47:32;2.20;;;2.10;;
14007;SDS011;61651;45.508;12.232;2023-04-09T08:50:38;2.33;;;2.05;;
14007;SDS011;61651;45.508;12.232;2023-04-09T08:53:41;2.38;;;2.17;;
14007;SDS011;61651;45.508;12.232;2023-04-09T08:56:45;1.83;;;1.73;;
14007;SDS011;61651;45.508;12.232;2023-04-09T08:59:47;2.20;;;2.10;;
14007;SDS011;61651;45.508;12.232;2023-04-09T09:03:01;2.13;;;2.00;;
14007;SDS011;61651;45.508;12.232;2023-04-09T09:06:06;1.95;;;1.85;;
14007;SDS011;61651;45.508;12.232;2023-04-09T09:09:22;2.00;;;1.90;;
14007;SDS011;61651;45.508;12.232;2023-04-09T09:12:33;2.28;;;2.03;;
14007;SDS011;61651;45.508;12.232;2023-04-09T09:15:37;2.75;;;2.25;;
14007;SDS011;61651;45.508;12.232;2023-04-09T09:18:40;2.20;;;2.00;;
14007;SDS011;61651;45.508;12.232;2023-04-09T09:21:53;2.00;;;1.90;;
14007;SDS011;61651;45.508;12.232;2023-04-09T09:24:56;2.33;;;2.13;;
14007;SDS011;61651;45.508;12.232;2023-04-09T09:28:05;3.80;;;3.03;;
14007;SDS011;61651;45.508;12.232;2023-04-09T09:31:08;2.90;;;2.60;;
14007;SDS011;61651;45.508;12.232;2023-04-09T09:34:11;6.95;;;6.25;;
14007;SDS011;61651;45.508;12.232;2023-04-09T09:37:25;8.30;;;7.50;;
14007;SDS011;61651;45.508;12.232;2023-04-09T09:40:28;4.68;;;4.28;;
14007;SDS011;61651;45.508;12.232;2023-04-09T09:43:34;4.45;;;3.35;;
14007;SDS011;61651;45.508;12.232;2023-04-09T09:46:41;2.30;;;2.20;;
14007;SDS011;61651;45.508;12.232;2023-04-09T09:49:43;2.92;;;2.70;;
14007;SDS011;61651;45.508;12.232;2023-04-09T09:52:46;2.88;;;2.67;;
14007;SDS011;61651;45.508;12.232;2023-04-09T09:55:49;2.55;;;2.35;;
14007;SDS011;61651;45.508;12.232;2023-04-09T09:58:58;2.90;;;2.50;;
14007;SDS011;61651;45.508;12.232;2023-04-09T10:02:07;2.70;;;2.15;;
14007;SDS011;61651;45.508;12.232;2023-04-09T10:05:18;3.10;;;2.80;;
14007;SDS011;61651;45.508;12.232;2023-04-09T10:08:25;2.70;;;2.50;;
14007;SDS011;61651;45.508;12.232;2023-04-09T10:11:28;2.88;;;2.60;;
14007;SDS011;61651;45.508;12.232;2023-04-09T10:14:31;3.00;;;2.80;;
14007;SDS011;61651;45.508;12.232;2023-04-09T10:17:35;2.97;;;2.72;;
14007;SDS011;61651;45.508;12.232;2023-04-09T10:20:38;2.35;;;2.17;;
14007;SDS011;61651;45.508;12.232;2023-04-09T10:23:49;3.03;;;2.83;;
14007;SDS011;61651;45.508;12.232;2023-04-09T10:26:52;3.92;;;2.90;;
14007;SDS011;61651;45.508;12.232;2023-04-09T10:29:55;8.00;;;3.63;;
14007;SDS011;61651;45.508;12.232;2023-04-09T10:33:12;13.38;;;4.90;;
14007;SDS011;61651;45.508;12.232;2023-04-09T10:36:17;3.63;;;2.97;;
14007;SDS011;61651;45.508;12.232;2023-04-09T10:39:25;5.25;;;3.45;;
14007;SDS011;61651;45.508;12.232;2023-04-09T10:42:28;3.05;;;2.80;;
14007;SDS011;61651;45.508;12.232;2023-04-09T10:45:39;3.42;;;2.80;;
14007;SDS011;61651;45.508;12.232;2023-04-09T10:48:42;3.20;;;2.90;;
14007;SDS011;61651;45.508;12.232;2023-04-09T10:51:47;2.90;;;2.70;;
14007;SDS011;61651;45.508;12.232;2023-04-09T10:54:55;5.45;;;2.97;;
14007;SDS011;61651;45.508;12.232;2023-04-09T10:57:57;3.70;;;3.03;;
14007;SDS011;61651;45.508;12.232;2023-04-09T11:00:59;3.13;;;2.83;;
14007;SDS011;61651;45.508;12.232;2023-04-09T11:04:08;3.20;;;2.90;;
14007;SDS011;61651;45.508;12.232;2023-04-09T11:07:21;5.55;;;3.60;;
14007;SDS011;61651;45.508;12.232;2023-04-09T11:10:26;4.57;;;3.70;;
14007;SDS011;61651;45.508;12.232;2023-04-09T11:13:29;3.38;;;3.08;;
14007;SDS011;61651;45.508;12.232;2023-04-09T11:16:32;3.33;;;3.03;;
14007;SDS011;61651;45.508;12.232;2023-04-09T11:19:34;3.25;;;2.80;;
14007;SDS011;61651;45.508;12.232;2023-04-09T11:22:36;5.50;;;3.10;;
14007;SDS011;61651;45.508;12.232;2023-04-09T11:25:40;2.72;;;2.53;;
14007;SDS011;61651;45.508;12.232;2023-04-09T11:28:42;3.30;;;3.00;;
14007;SDS011;61651;45.508;12.232;2023-04-09T11:31:44;3.00;;;2.78;;
14007;SDS011;61651;45.508;12.232;2023-04-09T11:34:46;3.10;;;2.80;;
14007;SDS011;61651;45.508;12.232;2023-04-09T11:37:48;2.70;;;2.50;;
14007;SDS011;61651;45.508;12.232;2023-04-09T11:40:55;2.83;;;2.63;;
14007;SDS011;61651;45.508;12.232;2023-04-09T11:43:58;2.70;;;2.47;;
14007;SDS011;61651;45.508;12.232;2023-04-09T11:47:02;2.97;;;2.72;;
14007;SDS011;61651;45.508;12.232;2023-04-09T11:50:04;2.65;;;2.40;;
14007;SDS011;61651;45.508;12.232;2023-04-09T11:53:17;3.08;;;2.58;;
14007;SDS011;61651;45.508;12.232;2023-04-09T11:56:21;2.58;;;2.38;;
14007;SDS011;61651;45.508;12.232;2023-04-09T11:59:24;3.10;;;2.83;;
14007;SDS011;61651;45.508;12.232;2023-04-09T12:02:26;3.65;;;3.35;;
14007;SDS011;61651;45.508;12.232;2023-04-09T12:05:31;3.55;;;2.58;;
14007;SDS011;61651;45.508;12.232;2023-04-09T12:08:35;2.42;;;2.22;;
14007;SDS011;61651;45.508;12.232;2023-04-09T12:11:38;2.63;;;2.42;;
14007;SDS011;61651;45.508;12.232;2023-04-09T13:17:29;2.00;;;1.90;;
14007;SDS011;61651;45.508;12.232;2023-04-09T13:20:31;2.92;;;2.55;;
14007;SDS011;61651;45.508;12.232;2023-04-09T13:23:33;2.55;;;2.35;;
14007;SDS011;61651;45.508;12.232;2023-04-09T13:26:35;2.70;;;2.50;;
14007;SDS011;61651;45.508;12.232;2023-04-09T13:29:37;2.97;;;2.47;;
14007;SDS011;61651;45.508;12.232;2023-04-09T13:32:41;2.28;;;2.08;;
14007;SDS011;61651;45.508;12.232;2023-04-09T13:35:42;2.50;;;2.30;;
14007;SDS011;61651;45.508;12.232;2023-04-09T13:38:44;2.50;;;2.30;;
14007;SDS011;61651;45.508;12.232;2023-04-09T13:41:47;3.75;;;2.28;;
14007;SDS011;61651;45.508;12.232;2023-04-09T13:44:49;2.20;;;2.00;;
14007;SDS011;61651;45.508;12.232;2023-04-09T13:47:53;3.47;;;2.10;;
14007;SDS011;61651;45.508;12.232;2023-04-09T13:50:54;2.42;;;2.10;;
14007;SDS011;61651;45.508;12.232;2023-04-09T13:53:57;2.45;;;2.25;;
14007;SDS011;61651;45.508;12.232;2023-04-09T13:56:59;2.55;;;1.80;;
14007;SDS011;61651;45.508;12.232;2023-04-09T14:00:01;2.10;;;1.90;;
14007;SDS011;61651;45.508;12.232;2023-04-09T14:03:06;2.33;;;2.05;;
14007;SDS011;61651;45.508;12.232;2023-04-09T14:06:08;1.98;;;1.80;;
14007;SDS011;61651;45.508;12.232;2023-04-09T14:09:10;1.73;;;1.63;;
14007;SDS011;61651;45.508;12.232;2023-04-09T14:12:12;1.73;;;1.63;;
14007;SDS011;61651;45.508;12.232;2023-04-09T14:15:14;2.38;;;1.75;;
14007;SDS011;61651;45.508;12.232;2023-04-09T14:18:17;2.50;;;2.30;;
14007;SDS011;61651;45.508;12.232;2023-04-09T14:21:19;3.20;;;1.98;;
14007;SDS011;61651;45.508;12.232;2023-04-09T14:24:21;2.28;;;1.80;;
14007;SDS011;61651;45.508;12.232;2023-04-09T14:27:23;2.05;;;1.85;;
14007;SDS011;61651;45.508;12.232;2023-04-09T14:30:25;1.80;;;1.70;;
14007;SDS011;61651;45.508;12.232;2023-04-09T14:33:29;1.85;;;1.75;;
14007;SDS011;61651;45.508;12.232;2023-04-09T14:36:31;1.60;;;1.50;;
14007;SDS011;61651;45.508;12.232;2023-04-09T14:39:33;2.00;;;1.80;;
14007;SDS011;61651;45.508;12.232;2023-04-09T14:42:35;2.42;;;1.92;;
14007;SDS011;61651;45.508;12.232;2023-04-09T14:45:37;2.50;;;2.00;;
14007;SDS011;61651;45.508;12.232;2023-04-09T14:48:40;2.20;;;2.00;;
14007;SDS011;61651;45.508;12.232;2023-04-09T14:51:42;2.25;;;2.00;;
14007;SDS011;61651;45.508;12.232;2023-04-09T14:54:44;1.80;;;1.70;;
14007;SDS011;61651;45.508;12.232;2023-04-09T14:57:46;2.50;;;1.70;;
14007;SDS011;61651;45.508;12.232;2023-04-09T15:00:48;2.03;;;1.80;;
14007;SDS011;61651;45.508;12.232;2023-04-09T15:03:51;1.63;;;1.52;;
14007;SDS011;61651;45.508;12.232;2023-04-09T15:06:53;1.85;;;1.70;;
14007;SDS011;61651;45.508;12.232;2023-04-09T15:09:55;2.10;;;1.75;;
14007;SDS011;61651;45.508;12.232;2023-04-09T15:12:59;2.40;;;2.20;;
14007;SDS011;61651;45.508;12.232;2023-04-09T15:16:01;3.00;;;1.85;;
14007;SDS011;61651;45.508;12.232;2023-04-09T15:19:04;1.95;;;1.83;;
14007;SDS011;61651;45.508;12.232;2023-04-09T15:22:06;2.00;;;1.85;;
14007;SDS011;61651;45.508;12.232;2023-04-09T15:25:08;1.85;;;1.73;;
14007;SDS011;61651;45.508;12.232;2023-04-09T15:28:10;1.95;;;1.60;;
14007;SDS011;61651;45.508;12.232;2023-04-09T15:31:13;2.10;;;1.90;;
14007;SDS011;61651;45.508;12.232;2023-04-09T15:34:16;2.13;;;2.00;;
14007;SDS011;61651;45.508;12.232;2023-04-09T15:37:18;2.05;;;1.85;;
14007;SDS011;61651;45.508;12.232;2023-04-09T15:40:20;1.90;;;1.80;;
14007;SDS011;61651;45.508;12.232;2023-04-09T15:43:22;2.83;;;1.85;;
14007;SDS011;61651;45.508;12.232;2023-04-09T15:46:26;1.73;;;1.63;;
14007;SDS011;61651;45.508;12.232;2023-04-09T15:49:29;1.52;;;1.42;;
14007;SDS011;61651;45.508;12.232;2023-04-09T15:52:31;1.50;;;1.40;;
14007;SDS011;61651;45.508;12.232;2023-04-09T15:55:33;2.28;;;1.80;;
14007;SDS011;61651;45.508;12.232;2023-04-09T15:58:35;3.17;;;1.70;;
14007;SDS011;61651;45.508;12.232;2023-04-09T16:01:37;1.88;;;1.77;;
14007;SDS011;61651;45.508;12.232;2023-04-09T16:04:41;1.80;;;1.70;;
14007;SDS011;61651;45.508;12.232;2023-04-09T16:07:43;2.38;;;1.77;;
14007;SDS011;61651;45.508;12.232;2023-04-09T16:10:44;1.77;;;1.67;;
14007;SDS011;61651;45.508;12.232;2023-04-09T16:13:46;2.10;;;1.60;;
14007;SDS011;61651;45.508;12.232;2023-04-09T16:16:48;1.70;;;1.60;;
14007;SDS011;61651;45.508;12.232;2023-04-09T16:19:52;1.60;;;1.50;;
14007;SDS011;61651;45.508;12.232;2023-04-09T16:22:54;1.70;;;1.60;;
14007;SDS011;61651;45.508;12.232;2023-04-09T16:25:56;1.77;;;1.63;;
14007;SDS011;61651;45.508;12.232;2023-04-09T16:28:58;2.13;;;1.80;;
14007;SDS011;61651;45.508;12.232;2023-04-09T16:32:03;3.05;;;1.92;;
14007;SDS011;61651;45.508;12.232;2023-04-09T16:35:06;2.00;;;1.90;;
14007;SDS011;61651;45.508;12.232;2023-04-09T16:38:08;1.80;;;1.70;;
14007;SDS011;61651;45.508;12.232;2023-04-09T16:41:10;1.63;;;1.52;;
14007;SDS011;61651;45.508;12.232;2023-04-09T16:44:12;1.75;;;1.65;;
14007;SDS011;61651;45.508;12.232;2023-04-09T16:47:14;2.60;;;1.70;;
14007;SDS011;61651;45.508;12.232;2023-04-09T16:50:17;1.73;;;1.60;;
14007;SDS011;61651;45.508;12.232;2023-04-09T16:53:19;2.00;;;1.73;;
14007;SDS011;61651;45.508;12.232;2023-04-09T16:56:21;2.50;;;1.85;;
14007;SDS011;61651;45.508;12.232;2023-04-09T16:59:23;2.33;;;1.90;;
14007;SDS011;61651;45.508;12.232;2023-04-09T17:02:25;1.80;;;1.70;;
14007;SDS011;61651;45.508;12.232;2023-04-09T17:05:29;2.42;;;1.67;;
14007;SDS011;61651;45.508;12.232;2023-04-09T17:08:31;2.33;;;1.88;;
14007;SDS011;61651;45.508;12.232;2023-04-09T17:11:34;2.17;;;1.98;;
14007;SDS011;61651;45.508;12.232;2023-04-09T17:14:37;2.58;;;2.00;;
14007;SDS011;61651;45.508;12.232;2023-04-09T17:17:40;3.15;;;1.92;;
14007;SDS011;61651;45.508;12.232;2023-04-09T17:20:44;2.30;;;2.10;;
14007;SDS011;61651;45.508;12.232;2023-04-09T17:23:46;2.60;;;2.40;;
14007;SDS011;61651;45.508;12.232;2023-04-09T17:26:48;4.00;;;1.60;;
14007;SDS011;61651;45.508;12.232;2023-04-09T17:29:50;2.30;;;2.00;;
14007;SDS011;61651;45.508;12.232;2023-04-09T17:32:52;3.22;;;1.90;;
14007;SDS011;61651;45.508;12.232;2023-04-09T17:35:56;2.40;;;2.20;;
14007;SDS011;61651;45.508;12.232;2023-04-09T17:38:58;24.15;;;15.43;;
14007;SDS011;61651;45.508;12.232;2023-04-09T17:42:00;10.68;;;7.82;;
14007;SDS011;61651;45.508;12.232;2023-04-09T17:45:04;3.88;;;3.50;;
14007;SDS011;61651;45.508;12.232;2023-04-09T17:48:06;2.90;;;2.47;;
14007;SDS011;61651;45.508;12.232;2023-04-09T17:51:13;3.05;;;2.47;;
14007;SDS011;61651;45.508;12.232;2023-04-09T17:54:15;2.80;;;2.38;;
14007;SDS011;61651;45.508;12.232;2023-04-09T17:57:17;6.55;;;2.25;;
14007;SDS011;61651;45.508;12.232;2023-04-09T18:00:19;2.45;;;2.10;;
14007;SDS011;61651;45.508;12.232;2023-04-09T18:03:21;5.95;;;2.30;;
14007;SDS011;61651;45.508;12.232;2023-04-09T18:06:25;4.40;;;2.30;;
14007;SDS011;61651;45.508;12.232;2023-04-09T18:09:28;3.40;;;2.47;;
14007;SDS011;61651;45.508;12.232;2023-04-09T18:12:30;5.50;;;2.67;;
14007;SDS011;61651;45.508;12.232;2023-04-09T18:15:32;2.63;;;2.42;;
14007;SDS011;61651;45.508;12.232;2023-04-09T18:18:34;3.67;;;2.90;;
14007;SDS011;61651;45.508;12.232;2023-04-09T18:21:37;4.82;;;3.67;;
14007;SDS011;61651;45.508;12.232;2023-04-09T18:24:39;4.40;;;3.85;;
14007;SDS011;61651;45.508;12.232;2023-04-09T18:27:41;5.57;;;4.13;;
14007;SDS011;61651;45.508;12.232;2023-04-09T18:30:43;4.15;;;3.60;;
14007;SDS011;61651;45.508;12.232;2023-04-09T18:33:45;5.45;;;2.97;;
14007;SDS011;61651;45.508;12.232;2023-04-09T18:36:49;3.17;;;2.88;;
14007;SDS011;61651;45.508;12.232;2023-04-09T18:39:51;6.18;;;3.45;;
14007;SDS011;61651;45.508;12.232;2023-04-09T18:42:53;2.90;;;2.70;;
14007;SDS011;61651;45.508;12.232;2023-04-09T18:45:55;4.15;;;2.83;;
14007;SDS011;61651;45.508;12.232;2023-04-09T18:48:58;5.03;;;2.50;;
14007;SDS011;61651;45.508;12.232;2023-04-09T18:52:01;5.43;;;2.75;;
14007;SDS011;61651;45.508;12.232;2023-04-09T18:55:07;4.07;;;2.90;;
14007;SDS011;61651;45.508;12.232;2023-04-09T18:58:09;6.63;;;2.45;;
14007;SDS011;61651;45.508;12.232;2023-04-09T19:01:14;3.88;;;3.42;;
14007;SDS011;61651;45.508;12.232;2023-04-09T19:04:16;3.47;;;3.17;;
14007;SDS011;61651;45.508;12.232;2023-04-09T19:07:19;5.50;;;3.80;;
14007;SDS011;61651;45.508;12.232;2023-04-09T19:10:22;5.18;;;3.65;;